Skip Navigation Links
NOAA logo - Click to go to the NOAA homepage
NOAA's National Weather Service
Alaska Aviation Weather Unit
  NWS logo - Click to go to the NWS homepage
Left Navbar Graphic     12 AKDT = 20 GMT

   
NOAA is celebrating 200 years of science, service, and stewardship. Visit the NOAA 200th celebration Web site to learn more.
USA.gov is the U.S. Government's official Web portal to all Federal, state and local government Web resources and services.
Facebook
NWS on Facebook

Important Change Regarding the AAWU Web Presence

 

Over the last several months, the AAWU has been working to navigate its webpages to a nationally supported server. Security, as well as other needs, have necessitated the change.  We have been given an extension for the site changeover while we diligently work at addressing feedback received. As of July 14, 2017, aawu.arh.noaa.gov will be discontinued. The new AAWU web address is weather.gov/aawu. It is now live and will run in-parallel with the old site until it is discontinued on July 14, 2017. Please continue to send any feedback or questions regarding the new webpages to nws.ar.aawu.webauthors@noaa.gov.  Thank you for your patience during this time of transition.
AAWU Home :: Display TAF Add Bookmark
TAF PAOT 251739Z 2518/2618 09009KT 2SM -RA BR BKN007 BKN011 OVC022
     FM260200 33005KT P6SM -SHRA SCT015 OVC025
     FM260700 31008KT P6SM VCSH SCT015 OVC040=
METAR PAOT 251453Z 09009KT 5SM -RA BR OVC010 12/11 A2986=

METAR PAOT 251553Z 09012KT 6SM RA BR BKN015 BKN032 OVC039 12/12
     A2986=

METAR PAOT 251653Z 09011KT 3SM -RA BR FEW005 SCT015 OVC022 13/12
     A2985=

PAOT 251705Z 08011KT 3SM -RA BR FEW005 BKN009 OVC019 13/12 A2985=

PAOT 251705Z 08011KT 3SM -RA BR FEW005 BKN009 OVC019 13/12 A2985
     RMK AO2 P0000 T01280122 $=

PAOT 251722Z 09009KT 2SM R09/6000VP6000FT -RA BR BKN007 BKN011
OVC022 13/13 A2985=

PAOT 251722Z 09009KT 2SM R09/6000VP6000FT -RA BR BKN007 BKN011
     OVC022 13/13 A2985 RMK AO2 P0001 T01280128 $=

PAOT 251749Z 09010KT 1SM R09/6000VP6000FT RA BR OVC004 13/13 A2985=

PAOT 251749Z 09010KT 1SM R09/6000VP6000FT RA BR OVC004 13/13 A2985
     RMK AO2 P0005 $=

METAR PAOT 251753Z 08010KT 1SM R09/6000VP6000FT RA BR OVC004 13/12
     A2985=

PAOT 251828Z 10008KT 1SM R09/6000VP6000FT RA BR OVC005 13/13 A2985=

PAOT 251828Z 10008KT 1SM R09/6000VP6000FT RA BR OVC005 13/13 A2985
     RMK AO2 P0006 T01330128 $=

PAOT 251850Z 13011KT 2SM -RA BR BKN007 OVC012 13/13 A2984=

PAOT 251850Z 13011KT 2SM -RA BR BKN007 OVC012 13/13 A2984 RMK AO2
     P0010 $=

METAR PAOT 251853Z 13010KT 2SM -RA BR OVC007 13/13 A2984=

PAOT 251933Z 13011KT 2SM R09/5500VP6000FT RA BR BKN003 OVC012
13/13 A2984=

SPECI PAOT 251933Z 13011KT 2SM R09/5500VP6000FT RA BR BKN003 OVC012
 13/13 A2984 RMK AO2 P0005 T01330128 $=

METAR PAOT 251953Z 13012KT 1 1/2SM -RA BR BKN005 BKN012 OVC016 13/12
     A2984 RMK AO2 SLP106 P0008 T01330122 $=


NOAA's National Weather Service
Alaska Aviation Weather Unit
6930 Sand Lake Road
Anchorage, AK 99502-1845
Disclaimer
Credits
Glossary
Privacy Policy
About Us
Career Opportunities
Contact AAWU Internet Services Site last modified: April, 17th 2012